Time;durP1;ratioP1;P1;durP2;ratioP2;P2;SDS_P1;SDS_P2;PMS_P1;PMS_P2;Temp;Humidity;BMP_temperature;BMP_pressure;BME280_temperature;BME280_humidity;BME280_pressure;Samples;Min_cycle;Max_cycle;Signal;HPM_P1;HPM_P2
2022/08/09 00:01:48;;;;;;;4.97;4.45;;;;;;;19.30;100.00;96630.75;5086637;28;20204;-83
2022/08/09 00:04:15;;;;;;;7.35;4.85;;;;;;;19.36;100.00;96634.28;5080133;28;20225;-83
2022/08/09 00:06:44;;;;;;;7.72;4.82;;;;;;;19.39;100.00;96634.56;5085935;28;20273;-83
2022/08/09 00:09:12;;;;;;;4.95;4.47;;;;;;;19.42;100.00;96639.47;5087796;28;20204;-83
2022/08/09 00:11:40;;;;;;;4.70;4.30;;;;;;;19.46;100.00;96640.56;5083594;28;20212;-82
2022/08/09 00:14:08;;;;;;;5.13;4.63;;;;;;;19.43;100.00;96643.84;5082622;28;20210;-82
2022/08/09 00:16:35;;;;;;;5.72;4.80;;;;;;;19.41;100.00;96626.03;5087948;28;20196;-82
2022/08/09 00:19:03;;;;;;;5.05;4.65;;;;;;;19.43;100.00;96632.88;5079685;28;20215;-83
2022/08/09 00:21:30;;;;;;;6.03;4.28;;;;;;;19.49;100.00;96639.19;5078934;28;20205;-83
2022/08/09 00:23:57;;;;;;;6.43;4.50;;;;;;;19.42;100.00;96633.97;5081491;28;20217;-82
2022/08/09 00:26:25;;;;;;;5.38;4.60;;;;;;;19.38;100.00;96637.56;5081444;28;20277;-82
2022/08/09 00:28:52;;;;;;;9.43;4.82;;;;;;;19.32;100.00;96647.69;5082195;28;20240;-83
2022/08/09 00:31:21;;;;;;;4.70;4.30;;;;;;;19.27;100.00;96637.59;5079338;28;20205;-83
2022/08/09 00:33:48;;;;;;;5.00;4.60;;;;;;;19.21;100.00;96644.19;5076519;28;20221;-84
2022/08/09 00:36:15;;;;;;;5.45;4.95;;;;;;;19.11;100.00;96646.13;5077969;28;20300;-82
2022/08/09 00:38:42;;;;;;;5.80;4.70;;;;;;;19.10;100.00;96647.22;5084048;28;20201;-84
2022/08/09 00:41:10;;;;;;;5.22;4.50;;;;;;;19.05;100.00;96633.56;5086035;28;20201;-84
2022/08/09 00:43:39;;;;;;;6.40;4.70;;;;;;;18.96;100.00;96635.22;5082989;28;20193;-82
2022/08/09 00:46:08;;;;;;;5.63;4.90;;;;;;;18.89;100.00;96635.47;5078041;28;20221;-83
2022/08/09 00:48:36;;;;;;;7.40;4.90;;;;;;;18.82;100.00;96632.22;5077825;28;20200;-83
2022/08/09 00:51:06;;;;;;;5.10;4.60;;;;;;;18.70;100.00;96624.31;5083573;28;20212;-83
2022/08/09 00:53:34;;;;;;;6.20;5.27;;;;;;;18.65;100.00;96627.03;5074508;28;20556;-82
2022/08/09 00:56:01;;;;;;;5.77;5.27;;;;;;;18.65;100.00;96629.78;5084381;28;20217;-83
2022/08/09 00:58:30;;;;;;;5.57;5.07;;;;;;;18.56;100.00;96627.81;5086630;28;20205;-84
2022/08/09 01:00:57;;;;;;;5.77;5.10;;;;;;;18.52;100.00;96622.91;5083606;28;20266;-83
2022/08/09 01:03:32;;;;;;;4.80;4.40;;;;;;;18.59;100.00;96625.41;5086051;28;20258;-83
2022/08/09 01:06:05;;;;;;;5.20;4.70;;;;;;;18.68;100.00;96625.69;5086920;28;20216;-82
2022/08/09 01:08:42;;;;;;;5.60;4.17;;;;;;;18.69;100.00;96624.59;5081816;28;20205;-82
2022/08/09 01:11:19;;;;;;;4.97;4.47;;;;;;;18.66;100.00;96615.00;5086729;28;20196;-83
2022/08/09 01:13:55;;;;;;;5.90;5.30;;;;;;;18.66;100.00;96625.94;5085899;28;20212;-83
2022/08/09 01:16:26;;;;;;;6.17;5.13;;;;;;;18.56;100.00;96617.72;5087753;28;20213;-82
2022/08/09 01:19:01;;;;;;;6.77;4.87;;;;;;;18.54;100.00;96623.44;5076721;28;20224;-83
2022/08/09 01:21:44;;;;;;;5.57;5.07;;;;;;;18.55;100.00;96618.78;5082364;28;20204;-82
2022/08/09 01:24:20;;;;;;;5.50;5.00;;;;;;;18.57;100.00;96615.81;5073750;28;20193;-82
2022/08/09 01:26:56;;;;;;;5.17;4.67;;;;;;;18.66;100.00;96625.13;5084592;28;20204;-83
2022/08/09 01:29:32;;;;;;;5.67;4.90;;;;;;;18.64;100.00;96619.91;5082171;28;20216;-82
2022/08/09 01:32:03;;;;;;;6.77;4.80;;;;;;;18.71;100.00;96628.69;5083606;28;20193;-83
2022/08/09 01:34:33;;;;;;;5.43;4.93;;;;;;;18.62;100.00;96622.13;5086338;28;20213;-83
2022/08/09 01:37:05;;;;;;;4.80;4.40;;;;;;;18.60;100.00;96629.78;5079344;28;20202;-83
2022/08/09 01:39:36;;;;;;;7.67;4.93;;;;;;;18.60;100.00;96631.69;5085523;28;20256;-82
2022/08/09 01:42:06;;;;;;;5.63;4.80;;;;;;;18.62;100.00;96633.06;5083238;28;20258;-82
2022/08/09 01:44:35;;;;;;;4.73;4.33;;;;;;;18.65;100.00;96629.78;5084181;28;20216;-82
2022/08/09 01:47:04;;;;;;;6.67;4.47;;;;;;;18.66;100.00;96625.94;5082963;28;20201;-83
2022/08/09 01:49:35;;;;;;;6.57;4.63;;;;;;;18.57;100.00;96632.22;5087183;28;20211;-82
2022/08/09 01:52:05;;;;;;;5.63;4.65;;;;;;;18.51;100.00;96629.47;5088969;28;20308;-83
2022/08/09 01:54:41;;;;;;;5.50;4.97;;;;;;;18.51;100.00;96634.94;5077909;28;20205;-80
2022/08/09 01:57:14;;;;;;;5.47;4.97;;;;;;;18.49;100.00;96636.31;5072725;28;20228;-83
2022/08/09 01:59:45;;;;;;;5.28;4.78;;;;;;;18.53;100.00;96642.88;5080404;28;20210;-83
2022/08/09 02:02:15;;;;;;;7.43;4.57;;;;;;;18.45;100.00;96647.00;5081828;28;20238;-82
2022/08/09 02:04:43;;;;;;;5.67;5.13;;;;;;;18.32;100.00;96649.41;5084753;28;20221;-82
2022/08/09 02:07:15;;;;;;;5.53;5.03;;;;;;;18.22;100.00;96636.56;5083053;28;20209;-83
2022/08/09 02:09:46;;;;;;;5.47;4.97;;;;;;;18.10;100.00;96644.22;5079417;28;20205;-83
2022/08/09 02:12:17;;;;;;;5.23;4.73;;;;;;;17.99;100.00;96643.38;5083821;28;20269;-83
2022/08/09 02:14:47;;;;;;;6.77;5.00;;;;;;;17.95;100.00;96646.91;5084410;28;20287;-82
2022/08/09 02:17:16;;;;;;;5.30;4.80;;;;;;;17.93;100.00;96655.38;5081257;28;20243;-82
2022/08/09 02:19:44;;;;;;;5.33;4.83;;;;;;;17.89;100.00;96648.78;5084403;28;20258;-83
2022/08/09 02:22:17;;;;;;;6.47;5.13;;;;;;;17.94;100.00;96657.03;5084428;28;20215;-84
2022/08/09 02:24:48;;;;;;;5.13;4.73;;;;;;;17.93;100.00;96660.84;5079435;28;20205;-83
2022/08/09 02:27:20;;;;;;;6.80;5.10;;;;;;;17.97;100.00;96661.09;5080753;28;20221;-83
2022/08/09 02:29:51;;;;;;;7.03;5.20;;;;;;;17.93;100.00;96654.56;5098481;28;20208;-82
2022/08/09 02:32:22;;;;;;;5.10;4.70;;;;;;;17.89;100.00;96659.72;5084574;28;20205;-82
2022/08/09 02:34:56;;;;;;;5.80;5.17;;;;;;;17.87;100.00;96664.63;5081757;28;20219;-82
2022/08/09 02:37:28;;;;;;;5.40;4.90;;;;;;;17.80;100.00;96657.78;5080786;28;20294;-83
2022/08/09 02:39:58;;;;;;;5.23;4.73;;;;;;;17.84;100.00;96662.47;5081517;28;20308;-82
2022/08/09 02:42:31;;;;;;;5.13;4.63;;;;;;;17.90;100.00;96653.19;5084933;28;20201;-83
2022/08/09 02:45:04;;;;;;;4.97;4.53;;;;;;;17.88;100.00;96647.16;5074863;28;20194;-83
2022/08/09 02:47:33;;;;;;;5.97;5.00;;;;;;;17.83;100.00;96652.63;5084433;28;20206;-83
2022/08/09 02:50:11;;;;;;;5.20;4.73;;;;;;;17.75;100.00;96647.69;5080645;28;20195;-82
2022/08/09 02:52:51;;;;;;;6.03;4.50;;;;;;;17.77;100.00;96656.44;5084624;28;20200;-83
2022/08/09 02:55:18;;;;;;;5.00;4.60;;;;;;;17.79;100.00;96656.97;5081651;28;20250;-83
2022/08/09 02:57:48;;;;;;;5.30;4.37;;;;;;;17.78;100.00;96655.31;5080631;28;20217;-83
2022/08/09 03:00:16;;;;;;;5.50;5.00;;;;;;;17.71;100.00;96661.03;5079267;28;20213;-83
2022/08/09 03:02:47;;;;;;;5.20;4.40;;;;;;;17.73;100.00;96663.50;5081769;28;20347;-84
2022/08/09 03:05:16;;;;;;;5.23;4.73;;;;;;;17.68;100.00;96668.97;5085276;28;20255;-84
2022/08/09 03:07:44;;;;;;;7.37;5.10;;;;;;;17.61;100.00;96662.88;5083434;28;20208;-84
2022/08/09 03:10:13;;;;;;;5.13;4.63;;;;;;;17.66;100.00;96671.13;5081181;28;20304;-83
2022/08/09 03:12:40;;;;;;;4.63;4.23;;;;;;;17.58;100.00;96669.69;5083130;28;20209;-83
2022/08/09 03:15:12;;;;;;;6.40;4.80;;;;;;;17.53;100.00;96655.19;5078169;28;20213;-81
2022/08/09 03:17:39;;;;;;;6.43;4.67;;;;;;;17.58;100.00;96663.41;5081971;28;20201;-82
2022/08/09 03:20:08;;;;;;;5.33;4.77;;;;;;;17.55;100.00;96664.75;5084060;28;20239;-83
2022/08/09 03:22:39;;;;;;;5.80;4.90;;;;;;;17.55;100.00;96672.13;5076980;28;20193;-83
2022/08/09 03:25:07;;;;;;;6.70;4.77;;;;;;;17.48;100.00;96664.19;5083111;28;20208;-83
2022/08/09 03:27:35;;;;;;;5.70;5.10;;;;;;;17.46;100.00;96663.63;5075433;28;20233;-83
2022/08/09 03:30:03;;;;;;;6.67;5.10;;;;;;;17.48;100.00;96668.81;5083410;28;20209;-83
2022/08/09 03:32:34;;;;;;;7.07;5.10;;;;;;;17.55;100.00;96677.59;5077394;28;20221;-83
2022/08/09 03:35:01;;;;;;;5.57;5.07;;;;;;;17.54;100.00;96673.22;5075175;28;20251;-83
2022/08/09 03:37:29;;;;;;;6.33;5.17;;;;;;;17.52;100.00;96669.94;5079897;28;20201;-83
2022/08/09 03:39:56;;;;;;;5.47;4.90;;;;;;;17.50;100.00;96680.31;5079326;28;20267;-83
2022/08/09 03:42:23;;;;;;;5.93;5.27;;;;;;;17.44;100.00;96675.94;5073575;28;20201;-82
2022/08/09 03:44:50;;;;;;;5.97;5.37;;;;;;;17.35;100.00;96681.84;5080981;28;20240;-83
2022/08/09 03:47:17;;;;;;;5.67;5.07;;;;;;;17.24;100.00;96684.81;5086189;28;20221;-82
2022/08/09 03:49:46;;;;;;;5.37;4.87;;;;;;;17.10;100.00;96681.72;5078132;28;20291;-82
2022/08/09 03:52:16;;;;;;;5.80;5.10;;;;;;;17.07;100.00;96682.25;5076441;28;20292;-80
2022/08/09 03:54:45;;;;;;;5.30;4.80;;;;;;;17.01;100.00;96686.06;5082099;28;20208;-83
2022/08/09 03:57:15;;;;;;;5.90;5.30;;;;;;;17.04;100.00;96685.50;5084640;28;20226;-84
2022/08/09 03:59:42;;;;;;;6.83;4.77;;;;;;;16.97;100.00;96684.91;5079889;28;20205;-84
2022/08/09 04:02:10;;;;;;;6.13;5.23;;;;;;;16.88;100.00;96697.41;5072367;28;20276;-82
2022/08/09 04:04:37;;;;;;;6.30;4.77;;;;;;;16.78;100.00;96687.22;5081025;28;20212;-82
2022/08/09 04:07:06;;;;;;;5.47;4.97;;;;;;;16.77;100.00;96690.22;5081593;28;20236;-82
2022/08/09 04:09:34;;;;;;;6.20;4.57;;;;;;;16.82;100.00;96682.91;5075369;28;20221;-81
2022/08/09 04:12:24;;;;;;;5.90;5.40;;;;;;;16.85;100.00;96684.25;5084799;28;20205;-83
2022/08/09 04:14:51;;;;;;;8.77;5.23;;;;;;;16.86;100.00;96688.66;5074260;28;20236;-82
2022/08/09 04:17:18;;;;;;;8.27;5.07;;;;;;;16.82;100.00;96676.63;5089048;28;20203;-83
2022/08/09 04:19:45;;;;;;;5.20;4.70;;;;;;;16.83;100.00;96690.00;5088317;28;20205;-82
2022/08/09 04:22:14;;;;;;;6.57;5.00;;;;;;;16.77;100.00;96673.84;5079850;28;20205;-82
2022/08/09 04:24:41;;;;;;;5.07;4.53;;;;;;;16.76;100.00;96674.97;5084877;28;20224;-82
2022/08/09 04:27:08;;;;;;;4.80;4.40;;;;;;;16.80;100.00;96678.78;5074903;28;20217;-83
2022/08/09 04:29:35;;;;;;;5.77;4.93;;;;;;;16.82;100.00;96676.63;5085859;28;20289;-82
2022/08/09 04:32:02;;;;;;;4.93;4.43;;;;;;;16.79;100.00;96677.97;5076884;28;20208;-82
2022/08/09 04:34:32;;;;;;;4.60;4.20;;;;;;;16.82;100.00;96682.09;5083669;28;20208;-82
2022/08/09 04:36:59;;;;;;;5.03;4.50;;;;;;;16.78;100.00;96680.94;5091973;28;20205;-82
2022/08/09 04:39:28;;;;;;;7.13;4.67;;;;;;;16.58;100.00;96671.53;5083031;28;20284;-82
2022/08/09 04:41:55;;;;;;;4.97;4.57;;;;;;;16.46;100.00;96670.84;5075147;28;20254;-81
2022/08/09 04:44:22;;;;;;;6.73;4.90;;;;;;;16.47;100.00;96669.78;5087986;28;20197;-82
2022/08/09 04:46:50;;;;;;;5.07;4.47;;;;;;;16.56;100.00;96657.31;5082790;28;20315;-81
2022/08/09 04:49:18;;;;;;;5.33;4.33;;;;;;;16.70;100.00;96667.78;5085457;28;20215;-82
2022/08/09 04:51:45;;;;;;;4.70;4.30;;;;;;;16.80;100.00;96667.88;5083647;28;20303;-82
2022/08/09 04:54:12;;;;;;;6.57;4.70;;;;;;;16.92;100.00;96671.25;5083506;28;20209;-82
2022/08/09 04:56:40;;;;;;;4.97;4.13;;;;;;;16.87;100.00;96665.75;5082293;28;20225;-82
2022/08/09 04:59:07;;;;;;;5.03;4.47;;;;;;;16.84;100.00;96669.00;5087148;28;20201;-82
2022/08/09 05:01:34;;;;;;;9.40;5.00;;;;;;;16.86;100.00;96672.28;5083618;28;20208;-82
2022/08/09 05:04:01;;;;;;;4.93;4.20;;;;;;;16.87;100.00;96677.47;5079761;28;20209;-82
2022/08/09 05:06:28;;;;;;;4.60;4.20;;;;;;;16.85;100.00;96670.63;5078224;28;20282;-83
2022/08/09 05:08:56;;;;;;;4.17;3.87;;;;;;;16.92;100.00;96676.72;5085351;28;20197;-82
2022/08/09 05:11:25;;;;;;;3.83;3.50;;;;;;;16.94;100.00;96679.97;5076119;28;20270;-81
2022/08/09 05:13:53;;;;;;;5.57;4.60;;;;;;;16.85;100.00;96673.34;5083507;28;20209;-82
2022/08/09 05:16:20;;;;;;;4.50;4.10;;;;;;;16.85;100.00;96670.63;5080429;28;20209;-82
2022/08/09 05:18:47;;;;;;;3.87;3.57;;;;;;;16.85;100.00;96673.34;5075387;28;20204;-82
2022/08/09 05:21:15;;;;;;;5.13;3.70;;;;;;;16.95;100.00;96687.06;5082509;28;20305;-81
2022/08/09 05:23:42;;;;;;;4.13;3.70;;;;;;;16.98;100.00;96695.56;5079471;28;20207;-82
2022/08/09 05:26:10;;;;;;;4.10;3.70;;;;;;;17.01;100.00;96697.75;5082528;28;20213;-83
2022/08/09 05:28:37;;;;;;;4.77;4.27;;;;;;;17.15;100.00;96697.31;5073170;28;20228;-82
2022/08/09 05:31:05;;;;;;;4.50;3.83;;;;;;;17.14;100.00;96695.66;5077267;28;20209;-84
2022/08/09 05:33:32;;;;;;;4.17;3.80;;;;;;;17.06;100.00;96696.97;5079563;28;20201;-83
2022/08/09 05:36:00;;;;;;;4.23;3.50;;;;;;;16.98;100.00;96692.84;5081274;28;20209;-84
2022/08/09 05:38:27;;;;;;;4.30;3.83;;;;;;;17.05;100.00;96698.06;5082965;28;20201;-84
2022/08/09 05:40:54;;;;;;;5.27;4.13;;;;;;;17.09;100.00;96696.47;5077120;28;20213;-83
2022/08/09 05:43:22;;;;;;;5.47;4.43;;;;;;;17.15;100.00;96691.84;5081334;28;20245;-85
2022/08/09 05:45:49;;;;;;;8.30;5.37;;;;;;;17.16;100.00;96688.88;5074766;28;20209;-83
2022/08/09 05:48:17;;;;;;;6.03;4.60;;;;;;;17.07;100.00;96695.91;5084788;28;20205;-84
2022/08/09 05:50:45;;;;;;;4.40;4.00;;;;;;;17.03;100.00;96700.22;5080769;28;20197;-85
2022/08/09 05:53:12;;;;;;;4.43;3.97;;;;;;;17.07;100.00;96698.63;5084131;28;20205;-82
2022/08/09 05:55:39;;;;;;;8.43;6.23;;;;;;;17.09;100.00;96699.19;5079804;28;20216;-83
2022/08/09 05:58:06;;;;;;;4.57;3.70;;;;;;;17.06;100.00;96704.34;5083391;28;20189;-83
2022/08/09 06:00:33;;;;;;;6.33;4.20;;;;;;;16.95;100.00;96707.00;5089711;28;20209;-80
2022/08/09 06:03:02;;;;;;;5.17;4.67;;;;;;;16.96;100.00;96702.34;5086045;28;20209;-80
2022/08/09 06:05:35;;;;;;;5.77;3.80;;;;;;;17.01;100.00;96716.06;5088178;28;20197;-81
2022/08/09 06:08:02;;;;;;;4.30;3.70;;;;;;;16.96;100.00;96700.47;5081181;28;20371;-81
2022/08/09 06:10:37;;;;;;;3.97;3.57;;;;;;;17.05;100.00;96717.16;5084429;28;20197;-80
2022/08/09 06:13:05;;;;;;;6.83;4.50;;;;;;;17.03;100.00;96717.41;5082167;28;20239;-81
2022/08/09 06:15:32;;;;;;;4.87;4.37;;;;;;;17.05;100.00;96717.16;5082948;28;20196;-80
2022/08/09 06:18:00;;;;;;;4.27;3.80;;;;;;;17.11;100.00;96728.91;5082785;28;20204;-81
2022/08/09 06:20:27;;;;;;;4.57;3.70;;;;;;;17.14;100.00;96729.22;5102304;28;20204;-81
2022/08/09 06:22:56;;;;;;;4.40;4.00;;;;;;;17.14;100.00;96717.50;5088493;28;20201;-81
2022/08/09 06:25:24;;;;;;;5.23;4.30;;;;;;;17.09;100.00;96725.66;5100185;28;20205;-81
2022/08/09 06:27:51;;;;;;;5.77;4.40;;;;;;;17.01;100.00;96732.44;5079318;28;20328;-80
2022/08/09 06:30:18;;;;;;;4.30;3.90;;;;;;;16.97;100.00;96734.84;5079703;28;20304;-81
2022/08/09 06:32:46;;;;;;;5.00;4.23;;;;;;;16.96;100.00;96740.56;5076506;28;20296;-80
2022/08/09 06:35:13;;;;;;;4.60;4.10;;;;;;;16.99;100.00;96737.31;5085877;28;20312;-80
2022/08/09 06:37:40;;;;;;;5.00;4.50;;;;;;;16.92;100.00;96742.16;5076970;28;20225;-81
2022/08/09 06:40:10;;;;;;;5.70;4.47;;;;;;;16.95;100.00;96739.72;5079977;28;20190;-80
2022/08/09 06:42:38;;;;;;;4.80;4.30;;;;;;;16.93;100.00;96733.69;5076022;28;20229;-80
2022/08/09 06:45:08;;;;;;;8.97;4.20;;;;;;;16.95;100.00;96733.44;5072468;28;20209;-81
2022/08/09 06:47:35;;;;;;;4.60;4.20;;;;;;;16.98;100.00;96739.22;5086447;28;20283;-80
2022/08/09 06:50:02;;;;;;;5.40;3.80;;;;;;;16.99;100.00;96737.31;5078314;28;20204;-80
2022/08/09 06:52:30;;;;;;;4.63;4.23;;;;;;;16.98;100.00;96743.84;5085601;28;20224;-80
2022/08/09 06:54:57;;;;;;;4.40;4.00;;;;;;;16.90;100.00;96745.16;5087247;28;20288;-80
2022/08/09 06:57:25;;;;;;;3.83;3.53;;;;;;;16.87;100.00;96742.94;5084594;28;20286;-80
2022/08/09 06:59:52;;;;;;;4.77;4.07;;;;;;;16.92;100.00;96748.44;5084038;28;20258;-80
2022/08/09 07:02:20;;;;;;;4.43;4.03;;;;;;;17.00;100.00;96739.78;5084638;28;20213;-80
2022/08/09 07:04:47;;;;;;;5.87;4.30;;;;;;;17.02;100.00;96743.06;5083623;28;20196;-80
2022/08/09 07:07:15;;;;;;;4.47;3.97;;;;;;;17.11;100.00;96751.56;5078898;28;20730;-81
2022/08/09 07:09:43;;;;;;;4.33;3.93;;;;;;;17.03;100.00;96749.34;5083330;28;20629;-80
2022/08/09 07:12:11;;;;;;;5.83;4.23;;;;;;;17.08;100.00;96754.84;5078863;28;20204;-81
2022/08/09 07:14:40;;;;;;;5.20;4.20;;;;;;;17.05;100.00;96747.16;5070631;28;20193;-80
2022/08/09 07:17:07;;;;;;;7.93;4.57;;;;;;;17.16;100.00;96743.44;5083070;28;20234;-81
2022/08/09 07:19:34;;;;;;;4.30;3.90;;;;;;;17.13;100.00;96749.41;5082635;28;20205;-81
2022/08/09 07:22:02;;;;;;;5.17;4.30;;;;;;;17.12;100.00;96738.75;5082977;28;20209;-80
2022/08/09 07:24:30;;;;;;;4.67;3.93;;;;;;;17.08;100.00;96741.19;5080872;28;20209;-80
2022/08/09 07:26:58;;;;;;;4.27;3.87;;;;;;;17.10;100.00;96747.19;5083896;28;20221;-80
2022/08/09 07:29:25;;;;;;;4.50;4.10;;;;;;;17.23;100.00;96748.66;5087159;28;20197;-81
2022/08/09 07:31:54;;;;;;;4.60;4.20;;;;;;;17.54;100.00;96755.13;5081819;28;20209;-81
2022/08/09 07:34:22;;;;;;;4.73;3.70;;;;;;;17.86;100.00;96753.16;5083379;28;20201;-81
2022/08/09 07:36:49;;;;;;;4.40;4.00;;;;;;;18.19;100.00;96748.34;5071550;28;20210;-81
2022/08/09 07:39:17;;;;;;;4.50;4.10;;;;;;;18.47;100.00;96747.88;5071954;28;20204;-81
2022/08/09 07:41:44;;;;;;;4.80;4.40;;;;;;;18.90;100.00;96758.34;5084813;28;20208;-81
2022/08/09 07:44:11;;;;;;;4.50;4.10;;;;;;;19.33;100.00;96738.88;5088077;28;20209;-81
2022/08/09 07:46:38;;;;;;;4.30;3.90;;;;;;;19.75;100.00;96744.03;5079445;28;20256;-81
2022/08/09 07:49:06;;;;;;;5.40;3.50;;;;;;;20.05;100.00;96743.91;5085821;28;20224;-80
2022/08/09 07:51:34;;;;;;;4.03;3.72;;;;;;;20.25;100.00;96742.97;5086264;28;20219;-81
2022/08/09 07:54:01;;;;;;;4.00;3.70;;;;;;;20.42;100.00;96745.38;5091167;28;20272;-81
2022/08/09 07:56:28;;;;;;;4.53;4.13;;;;;;;20.34;100.00;96738.59;5087896;28;20225;-81
2022/08/09 07:58:55;;;;;;;4.13;3.60;;;;;;;20.34;100.00;96749.56;5089481;28;20205;-81
2022/08/09 08:01:22;;;;;;;4.10;3.70;;;;;;;20.41;100.00;96743.78;5079377;28;20197;-81
2022/08/09 08:03:49;;;;;;;3.55;3.25;;;;;;;20.50;99.82;96744.81;5087807;28;20197;-81
2022/08/09 08:06:17;;;;;;;6.28;4.07;;;;;;;20.61;99.03;96740.88;5077702;28;20201;-81
2022/08/09 08:08:45;;;;;;;3.88;3.58;;;;;;;20.68;98.69;96750.44;5082031;28;20312;-81
2022/08/09 08:11:12;;;;;;;4.15;3.75;;;;;;;20.99;95.96;96744.75;5085668;28;20201;-81
2022/08/09 08:13:40;;;;;;;4.13;3.80;;;;;;;20.87;96.09;96742.34;5088112;28;20219;-81
2022/08/09 08:16:07;;;;;;;3.83;3.38;;;;;;;20.97;94.67;96747.78;5086986;28;20212;-81
2022/08/09 08:18:34;;;;;;;4.22;3.80;;;;;;;21.02;95.08;96742.22;5088545;28;20199;-81
2022/08/09 08:21:01;;;;;;;4.88;4.47;;;;;;;21.31;92.87;96742.28;5085907;28;20295;-81
2022/08/09 08:23:29;;;;;;;4.20;3.90;;;;;;;21.55;93.28;96739.56;5091339;28;20227;-81
2022/08/09 08:25:56;;;;;;;5.47;4.53;;;;;;;21.70;89.08;96741.34;5090453;28;20270;-81
2022/08/09 08:28:24;;;;;;;4.50;4.10;;;;;;;22.02;88.89;96743.50;5085850;28;20305;-81
2022/08/09 08:30:51;;;;;;;4.22;3.83;;;;;;;22.38;87.67;96739.16;5087934;28;20230;-81
2022/08/09 08:33:18;;;;;;;5.00;4.50;;;;;;;22.59;86.54;96728.69;5072492;28;20197;-81
2022/08/09 08:35:45;;;;;;;5.13;4.63;;;;;;;22.86;84.46;96739.03;5088373;28;20201;-81
2022/08/09 08:38:12;;;;;;;6.60;4.32;;;;;;;23.10;83.45;96734.25;5078087;28;20194;-81
2022/08/09 08:40:41;;;;;;;5.13;4.50;;;;;;;23.34;81.35;96736.88;5089917;28;20208;-81
2022/08/09 08:43:08;;;;;;;7.03;4.80;;;;;;;23.50;80.17;96729.16;5093527;28;20299;-81
2022/08/09 08:45:42;;;;;;;5.15;4.63;;;;;;;23.54;81.39;96732.97;5073155;28;20215;-81
2022/08/09 08:48:10;;;;;;;6.32;5.13;;;;;;;23.74;79.76;96744.41;5089159;28;20228;-81
2022/08/09 08:50:37;;;;;;;5.00;4.50;;;;;;;23.80;77.75;96731.38;5091171;28;20200;-81
2022/08/09 08:53:04;;;;;;;5.57;4.32;;;;;;;23.83;78.29;96729.91;5086672;28;20213;-81
2022/08/09 08:55:31;;;;;;;5.45;4.95;;;;;;;23.86;79.19;96735.66;5087927;28;20201;-81
2022/08/09 08:58:00;;;;;;;4.82;4.43;;;;;;;24.06;77.10;96731.69;5087788;28;20219;-81
2022/08/09 09:00:30;;;;;;;4.80;4.40;;;;;;;24.20;74.78;96731.66;5075213;28;20224;-81
2022/08/09 09:03:00;;;;;;;5.38;4.82;;;;;;;24.28;75.27;96728.19;5081214;28;20276;-82
2022/08/09 09:05:27;;;;;;;4.95;4.40;;;;;;;24.38;74.94;96733.50;5072312;28;20193;-81
2022/08/09 09:07:55;;;;;;;5.35;4.85;;;;;;;24.40;75.60;96731.25;5091792;28;20453;-81
2022/08/09 09:10:25;;;;;;;5.65;5.07;;;;;;;24.38;73.11;96727.97;5082633;28;20205;-82
2022/08/09 09:12:54;;;;;;;5.28;4.88;;;;;;;24.31;76.06;96727.59;5087552;28;20288;-81
2022/08/09 09:15:23;;;;;;;4.75;4.35;;;;;;;24.64;76.00;96728.22;5074155;28;20197;-81
2022/08/09 09:17:50;;;;;;;5.00;4.55;;;;;;;24.61;76.05;96726.09;5088405;28;20291;-81
2022/08/09 09:20:17;;;;;;;4.57;4.20;;;;;;;24.68;73.57;96729.22;5090838;28;20201;-81
2022/08/09 09:22:52;;;;;;;5.07;4.60;;;;;;;24.78;72.27;96720.72;5086298;28;20197;-81
2022/08/09 09:25:34;;;;;;;6.55;4.90;;;;;;;24.74;73.38;96731.59;5105241;28;20208;-81
2022/08/09 09:28:03;;;;;;;4.82;4.32;;;;;;;24.72;76.29;96722.78;5084356;28;20229;-81
2022/08/09 09:30:32;;;;;;;5.38;4.88;;;;;;;24.75;77.25;96716.63;5088467;28;20211;-81
2022/08/09 09:33:06;;;;;;;5.43;4.93;;;;;;;24.92;76.33;96718.78;5085021;28;20233;-81
2022/08/09 09:35:34;;;;;;;5.63;4.82;;;;;;;24.87;75.40;96705.84;5084611;28;20201;-81
2022/08/09 09:38:01;;;;;;;4.88;4.38;;;;;;;24.64;75.48;96706.16;5085424;28;20209;-81
2022/08/09 09:40:45;;;;;;;5.30;4.50;;;;;;;24.81;77.25;96718.16;5085275;28;20205;-81
2022/08/09 09:43:18;;;;;;;4.80;4.40;;;;;;;25.01;77.65;96705.03;5082590;28;20224;-81
2022/08/09 09:45:52;;;;;;;4.78;4.38;;;;;;;25.26;76.37;96713.47;5076147;28;20204;-82
2022/08/09 09:48:21;;;;;;;7.03;4.50;;;;;;;25.32;73.92;96722.47;5087354;28;20315;-81
2022/08/09 09:50:49;;;;;;;4.97;4.57;;;;;;;25.57;74.33;96702.44;5082329;28;20197;-81
2022/08/09 09:53:19;;;;;;;4.50;4.13;;;;;;;25.56;72.81;96711.03;5080040;28;20244;-81
2022/08/09 09:55:58;;;;;;;5.20;4.70;;;;;;;25.45;74.34;96704.97;5089304;28;20200;-81
2022/08/09 09:58:26;;;;;;;4.65;4.22;;;;;;;25.52;74.29;96708.09;5088550;28;20215;-80
2022/08/09 10:00:57;;;;;;;4.97;4.45;;;;;;;25.60;74.02;96707.34;5078946;28;20215;-81
2022/08/09 10:03:42;;;;;;;4.53;4.22;;;;;;;25.76;72.96;96707.75;5074100;28;20214;-82
2022/08/09 10:06:10;;;;;;;5.78;4.72;;;;;;;25.78;73.83;96696.34;5085220;28;20291;-81
2022/08/09 10:08:37;;;;;;;5.60;4.70;;;;;;;25.82;74.40;96698.19;5084422;28;20231;-81
2022/08/09 10:11:18;;;;;;;4.93;4.50;;;;;;;25.92;75.46;96703.44;5085447;28;20212;-82
2022/08/09 10:13:46;;;;;;;5.65;4.97;;;;;;;25.85;76.51;96705.03;5081875;28;20193;-81
2022/08/09 10:16:14;;;;;;;5.38;4.80;;;;;;;25.83;75.05;96707.31;5077902;28;20201;-81
2022/08/09 10:18:51;;;;;;;5.30;4.90;;;;;;;25.90;76.16;96707.66;5080917;28;20286;-81
2022/08/09 10:21:19;;;;;;;4.95;4.55;;;;;;;25.87;73.62;96709.09;5082175;28;20197;-81
2022/08/09 10:23:47;;;;;;;8.23;4.70;;;;;;;25.85;75.66;96707.81;5083579;28;20197;-81
2022/08/09 10:26:15;;;;;;;5.15;4.38;;;;;;;25.92;74.46;96710.91;5082396;28;20201;-81
2022/08/09 10:28:44;;;;;;;5.38;4.97;;;;;;;26.00;73.87;96710.13;5085496;28;20331;-81
2022/08/09 10:31:13;;;;;;;5.32;4.82;;;;;;;26.06;73.25;96716.31;5082009;28;20244;-81
2022/08/09 10:33:42;;;;;;;5.20;4.75;;;;;;;25.99;73.64;96711.25;5084220;28;20200;-81
2022/08/09 10:36:11;;;;;;;4.90;4.50;;;;;;;26.24;71.92;96721.59;5086995;28;20201;-81
2022/08/09 10:38:40;;;;;;;4.82;4.28;;;;;;;26.32;72.25;96704.22;5082078;28;20204;-81
2022/08/09 10:41:08;;;;;;;5.40;4.90;;;;;;;26.46;72.46;96701.31;5085951;28;20252;-81
2022/08/09 10:43:36;;;;;;;4.95;4.55;;;;;;;26.55;73.03;96695.78;5075544;28;20209;-81
2022/08/09 10:46:24;;;;;;;6.07;5.07;;;;;;;26.64;71.49;96713.22;5082946;28;20208;-81
2022/08/09 10:49:00;;;;;;;6.03;4.47;;;;;;;26.74;71.47;96701.81;5075434;28;20221;-81
2022/08/09 10:51:39;;;;;;;5.88;4.72;;;;;;;26.77;70.53;96703.94;5088274;28;20238;-81
2022/08/09 10:54:09;;;;;;;5.30;4.43;;;;;;;26.80;70.89;96706.06;5087594;28;20211;-81
2022/08/09 10:56:38;;;;;;;4.95;4.47;;;;;;;27.00;70.99;96704.63;5071325;28;20229;-81
2022/08/09 10:59:30;;;;;;;5.82;4.75;;;;;;;27.13;70.04;96702.84;5076131;28;20213;-81
2022/08/09 11:01:58;;;;;;;5.32;4.82;;;;;;;27.10;69.30;96687.66;5081394;28;20259;-81
2022/08/09 11:04:28;;;;;;;4.55;4.15;;;;;;;27.14;68.86;96693.38;5082955;28;20222;-81
2022/08/09 11:07:29;;;;;;;5.18;4.70;;;;;;;27.02;67.08;96692.06;5087681;28;20204;-81
2022/08/09 11:09:57;;;;;;;5.30;4.80;;;;;;;27.17;67.56;96699.06;4997504;28;20217;-82
2022/08/09 11:12:26;;;;;;;5.45;4.97;;;;;;;27.17;68.09;96695.47;5018388;28;20207;-81
2022/08/09 11:14:55;;;;;;;5.07;4.57;;;;;;;27.22;67.96;96689.78;5042146;28;20205;-81
2022/08/09 11:17:44;;;;;;;5.22;4.80;;;;;;;27.13;67.11;96686.19;5081773;28;20221;-81
2022/08/09 11:20:14;;;;;;;5.07;4.55;;;;;;;27.10;67.49;96688.47;5071692;28;20209;-81
2022/08/09 11:22:58;;;;;;;4.97;4.47;;;;;;;27.02;68.26;96672.69;5076240;28;20209;-81
2022/08/09 11:25:38;;;;;;;5.10;4.70;;;;;;;27.22;68.51;96687.00;5086568;28;20246;-81
2022/08/09 11:28:39;;;;;;;6.63;4.47;;;;;;;27.26;66.67;96683.22;5084045;28;20224;-81
2022/08/09 11:31:45;;;;;;;5.25;4.68;;;;;;;27.30;66.13;96692.53;4981920;28;20216;-82
2022/08/09 11:34:34;;;;;;;6.18;4.10;;;;;;;27.58;64.78;96686.59;5071154;28;20252;-81
2022/08/09 11:37:05;;;;;;;5.00;4.60;;;;;;;27.61;65.04;96680.41;5087264;28;20204;-81
2022/08/09 11:39:32;;;;;;;6.68;4.35;;;;;;;27.59;64.90;96682.69;5084978;28;20193;-81